createdAt,value
2022-08-24T00:00:35.126Z,28.00
2022-08-24T00:03:02.547Z,28.00
2022-08-24T00:05:30.201Z,28.00
2022-08-24T00:07:57.105Z,28.00
2022-08-24T00:10:24.435Z,28.00
2022-08-24T00:12:51.233Z,28.00
2022-08-24T00:15:18.569Z,28.00
2022-08-24T00:17:45.511Z,28.00
2022-08-24T00:20:13.971Z,27.90
2022-08-24T00:22:41.169Z,27.90
2022-08-24T00:25:10.255Z,27.90
2022-08-24T00:27:38.100Z,27.90
2022-08-24T00:30:08.656Z,27.90
2022-08-24T00:32:37.734Z,27.90
2022-08-24T00:35:06.830Z,27.80
2022-08-24T00:37:34.310Z,27.80
2022-08-24T00:40:01.786Z,27.80
2022-08-24T00:42:28.663Z,27.70
2022-08-24T00:44:55.455Z,27.70
2022-08-24T00:47:27.738Z,27.60
2022-08-24T00:50:01.536Z,27.60
2022-08-24T00:52:33.479Z,27.60
2022-08-24T00:55:26.418Z,27.50
2022-08-24T00:57:59.712Z,27.50
2022-08-24T01:00:32.130Z,27.50
2022-08-24T01:03:04.663Z,27.50
2022-08-24T01:05:33.871Z,27.50
2022-08-24T01:08:02.499Z,27.40
2022-08-24T01:10:33.391Z,27.40
2022-08-24T01:13:03.645Z,27.40
2022-08-24T01:15:33.188Z,27.40
2022-08-24T01:18:20.254Z,27.40
2022-08-24T01:20:53.402Z,27.40
2022-08-24T01:23:36.835Z,27.30
2022-08-24T01:26:05.991Z,27.30
2022-08-24T01:28:33.643Z,27.30
2022-08-24T01:31:04.246Z,27.30
2022-08-24T01:33:32.081Z,27.20
2022-08-24T01:36:04.947Z,27.20
2022-08-24T01:38:33.408Z,27.20
2022-08-24T01:41:03.511Z,27.20
2022-08-24T01:43:30.698Z,27.20
2022-08-24T01:46:01.112Z,27.20
2022-08-24T01:48:27.914Z,27.10
2022-08-24T01:50:54.917Z,27.10
2022-08-24T01:53:21.697Z,27.10
2022-08-24T01:55:49.125Z,27.10
2022-08-24T01:58:16.098Z,27.10
2022-08-24T02:00:44.770Z,27.00
2022-08-24T02:03:11.683Z,27.00
2022-08-24T02:05:38.584Z,27.00
2022-08-24T02:08:06.362Z,27.00
2022-08-24T02:10:33.385Z,27.00
2022-08-24T02:13:02.609Z,26.90
2022-08-24T02:15:32.985Z,26.90
2022-08-24T02:18:00.171Z,26.90
2022-08-24T02:20:27.351Z,26.90
2022-08-24T02:22:54.921Z,26.90
2022-08-24T02:25:22.016Z,26.90
2022-08-24T02:27:48.876Z,26.80
2022-08-24T02:30:16.839Z,26.80
2022-08-24T02:32:43.669Z,26.80
2022-08-24T02:35:11.081Z,26.80
2022-08-24T02:37:41.131Z,26.80
2022-08-24T02:40:12.943Z,26.70
2022-08-24T02:42:40.563Z,26.70
2022-08-24T02:45:09.030Z,26.70
2022-08-24T02:47:38.933Z,26.70
2022-08-24T02:50:08.933Z,26.70
2022-08-24T02:52:37.809Z,26.70
2022-08-24T02:55:06.148Z,26.70
2022-08-24T02:57:32.941Z,26.70
2022-08-24T02:59:59.766Z,26.70
2022-08-24T03:02:27.188Z,26.70
2022-08-24T03:04:54.166Z,26.70
2022-08-24T03:07:21.022Z,26.60
2022-08-24T03:09:48.624Z,26.60
2022-08-24T03:12:15.571Z,26.60
2022-08-24T03:14:42.350Z,26.60
2022-08-24T03:17:09.080Z,26.60
2022-08-24T03:19:35.925Z,26.60
2022-08-24T03:22:02.864Z,26.60
2022-08-24T03:24:29.662Z,26.60
2022-08-24T03:26:56.579Z,26.60
2022-08-24T03:29:25.581Z,26.60
2022-08-24T03:31:52.346Z,26.60
2022-08-24T03:34:19.719Z,26.60
2022-08-24T03:36:47.311Z,26.60
2022-08-24T03:39:16.131Z,26.60
2022-08-24T03:41:43.222Z,26.50
2022-08-24T03:44:10.104Z,26.50
2022-08-24T03:46:38.397Z,26.40
2022-08-24T03:49:08.669Z,26.40
2022-08-24T03:51:36.539Z,26.40
2022-08-24T03:54:05.245Z,26.40
2022-08-24T03:56:32.021Z,26.30
2022-08-24T03:58:59.009Z,26.30
2022-08-24T04:01:26.363Z,26.30
2022-08-24T04:03:55.206Z,26.30
2022-08-24T04:06:23.145Z,26.20
2022-08-24T04:08:51.396Z,26.20
2022-08-24T04:11:22.993Z,26.20
2022-08-24T04:13:52.930Z,26.20
2022-08-24T04:16:21.458Z,26.20
2022-08-24T04:18:48.679Z,26.10
2022-08-24T04:21:31.614Z,26.10
2022-08-24T04:24:03.814Z,26.10
2022-08-24T04:26:45.820Z,26.10
2022-08-24T04:29:14.221Z,26.10
2022-08-24T04:31:42.854Z,26.10
2022-08-24T04:34:10.333Z,26.10
2022-08-24T04:36:37.267Z,26.10
2022-08-24T04:39:05.342Z,26.10
2022-08-24T04:41:32.066Z,26.10
2022-08-24T04:44:00.024Z,26.00
2022-08-24T04:46:27.409Z,26.00
2022-08-24T04:48:54.403Z,26.00
2022-08-24T04:51:21.769Z,26.00
2022-08-24T04:53:51.256Z,26.00
2022-08-24T04:56:21.322Z,26.00
2022-08-24T04:58:48.358Z,25.90
2022-08-24T05:01:19.642Z,25.90
2022-08-24T05:03:49.785Z,26.00
2022-08-24T05:06:20.977Z,26.00
2022-08-24T05:08:48.240Z,25.90
2022-08-24T05:11:17.444Z,25.90
2022-08-24T05:13:44.765Z,25.90
2022-08-24T05:16:15.441Z,25.90
2022-08-24T05:18:43.472Z,25.90
2022-08-24T05:21:12.844Z,25.90
2022-08-24T05:23:43.945Z,25.90
2022-08-24T05:26:21.226Z,25.90
2022-08-24T05:28:48.277Z,26.00
2022-08-24T05:31:17.840Z,25.90
2022-08-24T05:33:45.589Z,26.00
2022-08-24T05:36:22.821Z,26.00
2022-08-24T05:38:51.678Z,26.10
2022-08-24T05:41:18.992Z,26.00
2022-08-24T05:43:45.955Z,26.10
2022-08-24T05:46:13.764Z,26.10
2022-08-24T05:48:40.599Z,26.20
2022-08-24T05:51:08.937Z,26.20
2022-08-24T05:53:36.212Z,26.30
2022-08-24T05:56:05.662Z,26.30
2022-08-24T05:58:32.816Z,26.40
2022-08-24T06:01:00.105Z,26.40
2022-08-24T06:03:27.397Z,26.40
2022-08-24T06:05:55.126Z,26.50
2022-08-24T06:08:22.070Z,26.60
2022-08-24T06:10:49.024Z,26.60
2022-08-24T06:13:16.655Z,26.70
2022-08-24T06:15:59.360Z,26.80
2022-08-24T06:18:31.032Z,26.80
2022-08-24T06:20:58.128Z,26.80
2022-08-24T06:23:25.015Z,26.90
2022-08-24T06:26:15.166Z,26.90
2022-08-24T06:28:43.324Z,27.00
2022-08-24T06:31:10.250Z,27.10
2022-08-24T06:33:39.471Z,27.10
2022-08-24T06:36:06.639Z,27.20
2022-08-24T06:38:34.444Z,27.30
2022-08-24T06:41:02.127Z,27.30
2022-08-24T06:43:28.980Z,27.30
2022-08-24T06:45:57.334Z,27.40
2022-08-24T06:48:25.039Z,27.50
2022-08-24T06:50:52.671Z,27.50
2022-08-24T06:53:19.540Z,27.60
2022-08-24T06:55:51.787Z,27.60
2022-08-24T06:58:19.765Z,27.70
2022-08-24T07:00:47.796Z,27.70
2022-08-24T07:03:15.874Z,27.80
2022-08-24T07:05:53.869Z,27.80
2022-08-24T07:08:21.277Z,27.90
2022-08-24T07:10:48.488Z,27.90
2022-08-24T07:13:15.910Z,28.00
2022-08-24T07:15:43.960Z,28.00
2022-08-24T07:18:15.733Z,28.10
2022-08-24T07:20:43.040Z,28.20
2022-08-24T07:23:12.993Z,28.20
2022-08-24T07:25:42.839Z,28.30
2022-08-24T07:28:12.507Z,28.30
2022-08-24T07:30:42.911Z,28.40
2022-08-24T07:33:10.496Z,28.40
2022-08-24T07:35:39.423Z,28.40
2022-08-24T07:38:07.594Z,28.40
2022-08-24T07:40:55.736Z,28.50
2022-08-24T07:43:22.477Z,28.50
2022-08-24T07:45:49.795Z,28.60
2022-08-24T07:48:16.610Z,28.60
2022-08-24T07:50:43.685Z,28.70
2022-08-24T07:53:14.883Z,28.70
2022-08-24T07:55:46.365Z,28.80
2022-08-24T07:58:13.286Z,28.80
2022-08-24T08:00:40.072Z,28.90
2022-08-24T08:03:07.066Z,28.90
2022-08-24T08:05:38.679Z,28.90
2022-08-24T08:08:05.649Z,29.00
2022-08-24T08:10:35.986Z,29.10
2022-08-24T08:13:06.972Z,29.10
2022-08-24T08:15:34.064Z,29.10
2022-08-24T08:18:00.902Z,29.20
2022-08-24T08:20:27.687Z,29.20
2022-08-24T08:23:13.152Z,29.30
2022-08-24T08:25:41.626Z,29.30
2022-08-24T08:28:25.324Z,29.30
2022-08-24T08:30:53.827Z,29.40
2022-08-24T08:33:21.059Z,29.40
2022-08-24T08:35:49.296Z,29.40
2022-08-24T08:38:16.415Z,29.50
2022-08-24T08:41:03.626Z,29.50
2022-08-24T08:44:01.257Z,29.50
2022-08-24T08:46:59.245Z,29.60
2022-08-24T08:49:49.305Z,29.60
2022-08-24T08:52:52.823Z,29.60
2022-08-24T08:55:32.050Z,29.60
2022-08-24T08:58:15.280Z,29.60
2022-08-24T09:00:51.973Z,29.60
2022-08-24T09:03:42.430Z,29.70
2022-08-24T09:06:34.568Z,29.70
2022-08-24T09:09:24.748Z,29.70
2022-08-24T09:11:57.363Z,29.70
2022-08-24T09:14:55.365Z,29.70
2022-08-24T09:17:42.332Z,29.80
2022-08-24T09:20:46.791Z,29.80
2022-08-24T09:23:13.498Z,29.80
2022-08-24T09:26:19.082Z,29.90
2022-08-24T09:29:05.368Z,30.00
2022-08-24T09:31:57.543Z,30.10
2022-08-24T09:34:46.127Z,30.20
2022-08-24T09:37:43.894Z,30.20
2022-08-24T09:40:29.121Z,30.30
2022-08-24T09:42:56.056Z,30.50
2022-08-24T09:45:52.390Z,30.50
2022-08-24T09:48:29.244Z,30.60
2022-08-24T09:51:33.667Z,30.70
2022-08-24T09:54:24.273Z,30.80
2022-08-24T09:57:11.610Z,30.90
2022-08-24T09:59:55.844Z,30.90
2022-08-24T10:03:01.076Z,31.00
2022-08-24T10:05:47.565Z,31.10
2022-08-24T10:08:35.394Z,31.10
2022-08-24T10:11:26.373Z,31.10
2022-08-24T10:14:47.020Z,31.20
2022-08-24T10:17:35.499Z,31.20
2022-08-24T10:20:48.704Z,31.30
2022-08-24T10:23:36.391Z,31.40
2022-08-24T10:26:21.279Z,31.50
2022-08-24T10:29:12.429Z,31.50
2022-08-24T10:31:39.306Z,31.60
2022-08-24T10:34:09.294Z,31.60
2022-08-24T10:36:48.345Z,31.70
2022-08-24T10:39:55.367Z,31.80
2022-08-24T10:43:01.574Z,31.80
2022-08-24T10:45:46.251Z,31.80
2022-08-24T10:48:47.018Z,31.80
2022-08-24T10:51:36.255Z,31.90
2022-08-24T10:54:04.374Z,32.00
2022-08-24T10:57:09.227Z,32.10
2022-08-24T10:59:56.945Z,32.10
2022-08-24T11:02:35.939Z,32.20
2022-08-24T11:05:06.469Z,32.20
2022-08-24T11:07:34.020Z,32.40
2022-08-24T11:10:10.436Z,32.50
2022-08-24T11:12:38.874Z,32.50
2022-08-24T11:15:17.579Z,32.50
2022-08-24T11:18:00.557Z,32.60
2022-08-24T11:20:36.415Z,32.60
2022-08-24T11:23:22.375Z,32.70
2022-08-24T11:26:05.834Z,32.70
2022-08-24T11:28:45.936Z,32.80
2022-08-24T11:31:20.514Z,32.80
2022-08-24T11:33:58.349Z,32.80
2022-08-24T11:36:28.382Z,32.90
2022-08-24T11:39:29.214Z,33.00
2022-08-24T11:42:29.707Z,33.00
2022-08-24T11:45:31.485Z,33.10
2022-08-24T11:48:28.468Z,33.10
2022-08-24T11:51:16.410Z,33.10
2022-08-24T11:53:52.965Z,33.20
2022-08-24T11:56:36.616Z,33.20
2022-08-24T11:59:17.757Z,33.30
2022-08-24T12:02:31.296Z,33.30
2022-08-24T12:05:11.465Z,33.30
2022-08-24T12:07:50.986Z,33.40
2022-08-24T12:10:32.812Z,33.40
2022-08-24T12:13:33.525Z,33.50
2022-08-24T12:16:47.345Z,33.50
2022-08-24T12:19:35.712Z,33.50
2022-08-24T12:22:06.392Z,33.60
2022-08-24T12:24:36.246Z,33.70
2022-08-24T12:27:17.099Z,33.70
2022-08-24T12:29:49.707Z,33.80
2022-08-24T12:32:24.122Z,33.80
2022-08-24T12:35:10.798Z,33.80
2022-08-24T12:37:58.145Z,33.90
2022-08-24T12:40:37.427Z,33.90
2022-08-24T12:43:10.696Z,34.00
2022-08-24T12:45:37.994Z,34.10
2022-08-24T12:48:27.020Z,34.10
2022-08-24T12:51:11.889Z,34.20
2022-08-24T12:53:56.646Z,34.20
2022-08-24T12:57:02.631Z,34.20
2022-08-24T12:59:41.251Z,34.20
2022-08-24T13:02:25.746Z,34.20
2022-08-24T13:04:53.060Z,34.20
2022-08-24T13:07:19.780Z,34.20
2022-08-24T13:09:48.360Z,34.30
2022-08-24T13:12:46.308Z,34.40
2022-08-24T13:15:25.861Z,34.40
2022-08-24T13:18:07.429Z,34.40
2022-08-24T13:20:43.221Z,34.50
2022-08-24T13:23:13.698Z,34.50
2022-08-24T13:25:55.784Z,34.60
2022-08-24T13:28:25.541Z,34.50
2022-08-24T13:31:02.958Z,34.70
2022-08-24T13:33:30.991Z,34.80
2022-08-24T13:35:59.595Z,34.80
2022-08-24T13:38:35.568Z,34.80
2022-08-24T13:41:05.447Z,34.90
2022-08-24T13:43:37.908Z,34.80
2022-08-24T13:46:19.607Z,34.90
2022-08-24T13:49:04.393Z,34.90
2022-08-24T13:52:16.810Z,34.90
2022-08-24T13:55:04.992Z,34.90
2022-08-24T13:57:42.541Z,34.90
2022-08-24T14:00:39.750Z,34.90
2022-08-24T14:03:18.636Z,35.00
2022-08-24T14:06:20.591Z,35.00
2022-08-24T14:09:12.333Z,35.00
2022-08-24T14:12:16.529Z,35.10
2022-08-24T14:14:46.117Z,35.10
2022-08-24T14:17:35.609Z,35.30
2022-08-24T14:20:33.537Z,35.30
2022-08-24T14:23:27.060Z,35.40
2022-08-24T14:26:32.876Z,35.50
2022-08-24T14:29:17.913Z,35.50
2022-08-24T14:31:57.287Z,35.60
2022-08-24T14:34:53.820Z,35.70
2022-08-24T14:37:26.439Z,35.70
2022-08-24T14:40:26.304Z,35.80
2022-08-24T14:43:22.009Z,35.90
2022-08-24T14:45:58.074Z,36.00
2022-08-24T14:48:35.932Z,36.00
2022-08-24T14:51:08.393Z,36.10
2022-08-24T14:54:03.262Z,36.10
2022-08-24T14:56:50.348Z,36.10
2022-08-24T14:59:49.048Z,36.10
2022-08-24T15:02:40.571Z,36.00
2022-08-24T15:05:29.491Z,36.00
2022-08-24T15:08:01.721Z,35.90
2022-08-24T15:10:48.955Z,35.80
2022-08-24T15:13:46.971Z,35.80
2022-08-24T15:16:21.099Z,35.70
2022-08-24T15:19:14.028Z,35.60
2022-08-24T15:21:52.960Z,35.60
2022-08-24T15:24:40.009Z,35.50
2022-08-24T15:27:34.834Z,35.40
2022-08-24T15:30:06.229Z,35.30
2022-08-24T15:32:48.781Z,35.30
2022-08-24T15:35:32.099Z,35.20
2022-08-24T15:38:35.985Z,35.20
2022-08-24T15:41:07.964Z,35.10
2022-08-24T15:43:40.577Z,35.10
2022-08-24T15:46:08.262Z,35.10
2022-08-24T15:48:35.957Z,35.10
2022-08-24T15:51:03.392Z,35.00
2022-08-24T15:53:42.417Z,35.00
2022-08-24T15:56:21.331Z,35.00
2022-08-24T15:58:48.943Z,34.90
2022-08-24T16:01:34.296Z,34.90
2022-08-24T16:04:12.837Z,34.90
2022-08-24T16:06:48.266Z,35.00
2022-08-24T16:09:21.135Z,35.20
2022-08-24T16:11:57.110Z,35.40
2022-08-24T16:14:32.486Z,35.50
2022-08-24T16:17:01.819Z,35.50
2022-08-24T16:19:33.638Z,35.60
2022-08-24T16:22:12.966Z,35.60
2022-08-24T16:24:42.049Z,35.70
2022-08-24T16:27:13.097Z,35.70
2022-08-24T16:29:41.293Z,35.80
2022-08-24T16:32:37.048Z,35.90
2022-08-24T16:35:12.320Z,36.00
2022-08-24T16:37:39.814Z,36.10
2022-08-24T16:40:08.639Z,36.20
2022-08-24T16:42:36.782Z,36.20
2022-08-24T16:45:07.883Z,36.20
2022-08-24T16:47:34.797Z,36.30
2022-08-24T16:50:01.655Z,36.30
2022-08-24T16:52:28.458Z,36.30
2022-08-24T16:54:55.303Z,36.30
2022-08-24T16:57:24.858Z,36.20
2022-08-24T16:59:52.706Z,36.20
2022-08-24T17:02:21.995Z,36.20
2022-08-24T17:04:49.864Z,36.20
2022-08-24T17:07:21.478Z,36.20
2022-08-24T17:09:48.822Z,36.10
2022-08-24T17:12:15.892Z,36.10
2022-08-24T17:14:43.611Z,36.00
2022-08-24T17:17:13.899Z,35.90
2022-08-24T17:19:43.552Z,35.90
2022-08-24T17:22:16.133Z,35.90
2022-08-24T17:24:43.598Z,35.80
2022-08-24T17:27:10.771Z,35.80
2022-08-24T17:29:37.706Z,35.80
2022-08-24T17:32:05.269Z,35.80
2022-08-24T17:34:32.312Z,35.70
2022-08-24T17:37:00.234Z,35.60
2022-08-24T17:39:27.862Z,35.60
2022-08-24T17:41:56.621Z,35.50
2022-08-24T17:44:28.894Z,35.50
2022-08-24T17:46:59.343Z,35.40
2022-08-24T17:49:28.004Z,35.40
2022-08-24T17:51:56.028Z,35.30
2022-08-24T17:54:23.051Z,35.30
2022-08-24T17:56:51.053Z,35.30
2022-08-24T17:59:25.451Z,35.30
2022-08-24T18:02:10.036Z,35.20
2022-08-24T18:04:37.534Z,35.10
2022-08-24T18:07:13.642Z,35.00
2022-08-24T18:09:48.566Z,35.00
2022-08-24T18:12:21.201Z,34.90
2022-08-24T18:14:48.561Z,34.90
2022-08-24T18:17:22.774Z,34.80
2022-08-24T18:19:52.748Z,34.70
2022-08-24T18:22:19.644Z,34.60
2022-08-24T18:24:46.586Z,34.50
2022-08-24T18:27:17.952Z,34.50
2022-08-24T18:29:47.540Z,34.40
2022-08-24T18:32:21.902Z,34.30
2022-08-24T18:34:48.887Z,34.20
2022-08-24T18:37:15.824Z,34.20
2022-08-24T18:39:42.679Z,34.10
2022-08-24T18:42:11.291Z,34.00
2022-08-24T18:44:39.279Z,33.90
2022-08-24T18:47:07.194Z,33.90
2022-08-24T18:49:35.576Z,33.70
2022-08-24T18:52:03.915Z,33.60
2022-08-24T18:54:36.598Z,33.50
2022-08-24T18:57:04.287Z,33.50
2022-08-24T18:59:31.117Z,33.40
2022-08-24T19:02:18.076Z,33.30
2022-08-24T19:04:47.004Z,33.20
2022-08-24T19:07:15.061Z,33.10
2022-08-24T19:09:42.290Z,33.00
2022-08-24T19:12:11.500Z,33.00
2022-08-24T19:14:39.525Z,33.00
2022-08-24T19:17:08.314Z,32.90
2022-08-24T19:19:35.644Z,32.80
2022-08-24T19:22:03.669Z,32.80
2022-08-24T19:24:32.349Z,32.70
2022-08-24T19:27:01.755Z,32.70
2022-08-24T19:29:54.425Z,32.60
2022-08-24T19:32:22.467Z,32.50
2022-08-24T19:34:50.457Z,32.40
2022-08-24T19:37:17.843Z,32.40
2022-08-24T19:39:44.951Z,32.40
2022-08-24T19:42:16.302Z,32.30
2022-08-24T19:45:01.642Z,32.30
2022-08-24T19:47:28.532Z,32.20
2022-08-24T19:49:55.395Z,32.20
2022-08-24T19:52:22.539Z,32.10
2022-08-24T19:54:49.430Z,32.10
2022-08-24T19:57:30.904Z,32.00
2022-08-24T20:00:21.520Z,32.00
2022-08-24T20:02:50.846Z,31.90
2022-08-24T20:05:19.202Z,31.80
2022-08-24T20:07:47.192Z,31.80
2022-08-24T20:10:15.847Z,31.70
2022-08-24T20:12:42.697Z,31.70
2022-08-24T20:15:10.102Z,31.60
2022-08-24T20:17:37.130Z,31.60
2022-08-24T20:20:06.671Z,31.50
2022-08-24T20:22:35.019Z,31.40
2022-08-24T20:25:02.096Z,31.40
2022-08-24T20:27:29.895Z,31.40
2022-08-24T20:29:57.972Z,31.30
2022-08-24T20:32:25.243Z,31.30
2022-08-24T20:34:52.112Z,31.30
2022-08-24T20:37:23.170Z,31.20
2022-08-24T20:39:50.149Z,31.20
2022-08-24T20:42:21.124Z,31.10
2022-08-24T20:44:50.234Z,31.10
2022-08-24T20:47:17.685Z,31.10
2022-08-24T20:49:44.481Z,31.00
2022-08-24T20:52:12.008Z,31.00
2022-08-24T20:54:39.956Z,31.00
2022-08-24T20:57:09.170Z,30.90
2022-08-24T20:59:36.008Z,30.90
2022-08-24T21:02:03.753Z,30.80
2022-08-24T21:04:30.869Z,30.80
2022-08-24T21:06:57.831Z,30.70
2022-08-24T21:09:25.055Z,30.70
2022-08-24T21:11:52.173Z,30.70
2022-08-24T21:14:19.986Z,30.60
2022-08-24T21:16:47.648Z,30.60
2022-08-24T21:19:17.740Z,30.50
2022-08-24T21:21:46.999Z,30.50
2022-08-24T21:24:15.372Z,30.40
2022-08-24T21:26:42.692Z,30.30
2022-08-24T21:29:10.704Z,30.30
2022-08-24T21:31:38.301Z,30.20
2022-08-24T21:34:24.844Z,30.20
2022-08-24T21:36:53.725Z,30.20
2022-08-24T21:39:21.350Z,30.10
2022-08-24T21:41:48.199Z,30.10
2022-08-24T21:44:14.992Z,30.00
2022-08-24T21:46:41.912Z,30.00
2022-08-24T21:49:08.905Z,29.90
2022-08-24T21:51:39.384Z,29.90
2022-08-24T21:54:06.156Z,29.90
2022-08-24T21:56:34.418Z,29.80
2022-08-24T21:59:01.290Z,29.80
2022-08-24T22:01:28.801Z,29.80
2022-08-24T22:03:56.164Z,29.80
2022-08-24T22:06:23.074Z,29.70
2022-08-24T22:08:50.004Z,29.70
2022-08-24T22:11:20.647Z,29.70
2022-08-24T22:13:47.958Z,29.60
2022-08-24T22:16:17.045Z,29.60
2022-08-24T22:18:43.894Z,29.60
2022-08-24T22:21:14.711Z,29.60
2022-08-24T22:23:41.810Z,29.60
2022-08-24T22:26:09.859Z,29.60
2022-08-24T22:28:38.719Z,29.50
2022-08-24T22:31:24.285Z,29.50
2022-08-24T22:33:51.761Z,29.40
2022-08-24T22:36:18.841Z,29.40
2022-08-24T22:38:46.166Z,29.40
2022-08-24T22:41:14.355Z,29.30
2022-08-24T22:44:00.013Z,29.30
2022-08-24T22:46:27.265Z,29.30
2022-08-24T22:48:54.340Z,29.20
2022-08-24T22:51:21.846Z,29.20
2022-08-24T22:53:48.999Z,29.20
2022-08-24T22:56:22.144Z,29.10
2022-08-24T22:58:49.501Z,29.10
2022-08-24T23:01:21.868Z,29.00
2022-08-24T23:03:49.789Z,29.00
2022-08-24T23:06:17.236Z,29.00
2022-08-24T23:08:44.040Z,29.00
2022-08-24T23:11:12.046Z,29.00
2022-08-24T23:13:39.620Z,28.90
2022-08-24T23:16:08.160Z,29.00
2022-08-24T23:18:53.855Z,28.90
2022-08-24T23:21:20.873Z,28.90
2022-08-24T23:23:48.808Z,28.90
2022-08-24T23:26:18.424Z,28.80
2022-08-24T23:28:46.221Z,28.80
2022-08-24T23:31:19.473Z,28.80
2022-08-24T23:33:46.683Z,28.70
2022-08-24T23:36:17.365Z,28.70
2022-08-24T23:38:44.364Z,28.70
2022-08-24T23:41:14.530Z,28.70
2022-08-24T23:43:42.133Z,28.60
2022-08-24T23:46:10.332Z,28.60
2022-08-24T23:48:38.336Z,28.50
2022-08-24T23:51:08.941Z,28.50
2022-08-24T23:53:36.703Z,28.50
2022-08-24T23:56:09.707Z,28.40
2022-08-24T23:58:38.628Z,28.40
